Time;durP1;ratioP1;P1;durP2;ratioP2;P2;SDS_P1;SDS_P2;PMS_P1;PMS_P2;Temp;Humidity;BMP_temperature;BMP_pressure;BME280_temperature;BME280_humidity;BME280_pressure;Samples;Min_cycle;Max_cycle;Signal;HPM_P1;HPM_P2
2023/09/07 00:01:52;;;;;;;3.97;2.33;;;14.00;99.90;;;;;;5043551;28;20174;-62
2023/09/07 00:04:18;;;;;;;3.73;1.87;;;13.90;99.90;;;;;;5047744;28;20219;-62
2023/09/07 00:06:44;;;;;;;3.93;2.30;;;13.90;99.90;;;;;;5047851;28;20918;-62
2023/09/07 00:09:11;;;;;;;4.17;2.50;;;13.90;99.90;;;;;;5037327;28;20425;-62
2023/09/07 00:11:38;;;;;;;4.47;2.53;;;13.80;99.90;;;;;;5035536;28;20529;-62
2023/09/07 00:14:03;;;;;;;3.80;2.20;;;13.80;99.90;;;;;;5050914;28;20464;-62
2023/09/07 00:16:34;;;;;;;3.30;2.03;;;13.70;99.90;;;;;;5051968;28;20420;-62
2023/09/07 00:18:59;;;;;;;5.07;2.47;;;13.70;99.90;;;;;;5045900;28;20182;-62
2023/09/07 00:21:25;;;;;;;5.27;2.73;;;13.70;99.90;;;;;;5032328;28;20420;-62
2023/09/07 00:23:50;;;;;;;2.93;1.77;;;13.70;99.90;;;;;;5051483;28;20182;-62
2023/09/07 00:26:16;;;;;;;22.17;2.73;;;13.70;99.90;;;;;;5051409;28;20189;-62
2023/09/07 00:28:42;;;;;;;4.00;2.30;;;13.60;99.90;;;;;;5037872;28;20201;-62
2023/09/07 00:31:07;;;;;;;7.13;2.57;;;13.60;99.90;;;;;;5039143;28;20229;-62
2023/09/07 00:33:33;;;;;;;5.17;2.50;;;13.60;99.90;;;;;;5047874;28;20206;-62
2023/09/07 00:36:01;;;;;;;3.30;2.03;;;13.60;99.90;;;;;;5044035;28;20622;-62
2023/09/07 00:38:26;;;;;;;4.60;2.70;;;13.60;99.90;;;;;;5051195;28;20186;-62
2023/09/07 00:40:52;;;;;;;3.43;2.30;;;13.60;99.90;;;;;;5048017;28;20463;-62
2023/09/07 00:43:17;;;;;;;8.43;2.43;;;13.50;99.90;;;;;;5045095;28;20544;-62
2023/09/07 00:45:43;;;;;;;5.80;2.63;;;13.50;99.90;;;;;;5043760;28;20177;-62
2023/09/07 00:48:11;;;;;;;3.73;2.33;;;13.50;99.90;;;;;;5045694;28;20651;-62
2023/09/07 00:50:37;;;;;;;3.60;2.00;;;13.40;99.90;;;;;;5044533;28;20239;-62
2023/09/07 00:53:03;;;;;;;3.20;1.80;;;13.40;99.90;;;;;;5051030;28;20460;-62
2023/09/07 00:55:32;;;;;;;3.40;1.80;;;13.40;99.90;;;;;;5051695;28;20181;-63
2023/09/07 00:57:58;;;;;;;3.30;2.20;;;13.50;99.90;;;;;;5037190;28;20424;-62
2023/09/07 01:00:24;;;;;;;4.60;2.07;;;13.50;99.90;;;;;;5051687;28;20416;-62
2023/09/07 01:02:50;;;;;;;3.17;1.70;;;13.40;99.90;;;;;;5043768;28;20178;-62
2023/09/07 01:05:15;;;;;;;3.43;1.73;;;13.40;99.90;;;;;;5031465;28;20186;-63
2023/09/07 01:07:53;;;;;;;4.20;1.60;;;13.40;99.90;;;;;;5023652;28;20305;-62
2023/09/07 01:10:20;;;;;;;5.10;2.37;;;13.30;99.90;;;;;;5039640;28;20197;-62
2023/09/07 01:12:46;;;;;;;3.63;2.40;;;13.30;99.90;;;;;;5050809;28;20492;-65
2023/09/07 01:15:11;;;;;;;7.80;2.30;;;13.20;99.90;;;;;;5037613;28;20445;-62
2023/09/07 01:17:38;;;;;;;4.63;2.13;;;13.30;99.90;;;;;;5050726;28;20223;-62
2023/09/07 01:20:09;;;;;;;5.80;2.27;;;13.20;99.90;;;;;;5051286;28;20174;-63
2023/09/07 01:22:36;;;;;;;3.73;1.43;;;13.20;99.90;;;;;;5051156;28;20416;-62
2023/09/07 01:25:04;;;;;;;3.33;1.70;;;13.20;99.90;;;;;;5050816;28;20416;-62
2023/09/07 01:27:30;;;;;;;4.37;2.30;;;13.20;99.90;;;;;;5044846;28;20432;-62
2023/09/07 01:29:57;;;;;;;4.37;2.30;;;13.20;99.90;;;;;;5051013;28;20801;-62
2023/09/07 01:32:22;;;;;;;3.47;2.00;;;13.20;99.90;;;;;;5028300;28;20177;-62
2023/09/07 01:34:48;;;;;;;4.00;2.20;;;13.10;99.90;;;;;;5040245;28;20966;-62
2023/09/07 01:37:14;;;;;;;10.07;2.93;;;13.10;99.90;;;;;;5033089;28;20211;-62
2023/09/07 01:39:39;;;;;;;3.80;2.00;;;13.10;99.90;;;;;;5043542;28;20871;-62
2023/09/07 01:42:05;;;;;;;5.27;2.10;;;13.10;99.90;;;;;;5051454;28;20188;-62
2023/09/07 01:44:30;;;;;;;4.30;1.90;;;13.20;99.90;;;;;;5054414;28;20181;-62
2023/09/07 01:46:56;;;;;;;7.60;2.30;;;13.10;99.90;;;;;;5054779;28;20194;-62
2023/09/07 01:49:22;;;;;;;4.63;2.23;;;13.20;99.90;;;;;;5047181;28;20277;-62
2023/09/07 01:51:47;;;;;;;7.20;2.07;;;13.10;99.90;;;;;;5036351;28;20672;-62
2023/09/07 01:54:13;;;;;;;2.80;1.40;;;13.20;99.90;;;;;;5040597;28;20206;-62
2023/09/07 01:56:41;;;;;;;3.77;1.80;;;13.20;99.90;;;;;;5041081;28;20178;-62
2023/09/07 01:59:06;;;;;;;4.00;2.00;;;13.10;99.90;;;;;;5027777;28;20171;-63
2023/09/07 02:01:36;;;;;;;2.43;1.57;;;13.10;99.90;;;;;;5034300;28;20750;-62
2023/09/07 02:04:02;;;;;;;3.10;1.60;;;13.10;99.90;;;;;;5037444;28;20182;-62
2023/09/07 02:06:28;;;;;;;4.30;1.93;;;13.10;99.90;;;;;;5032495;28;20416;-62
2023/09/07 02:08:53;;;;;;;3.27;1.67;;;13.00;99.90;;;;;;5034484;28;20505;-63
2023/09/07 02:11:19;;;;;;;5.00;2.30;;;13.00;99.90;;;;;;5045044;28;20212;-62
2023/09/07 02:13:47;;;;;;;4.80;2.10;;;13.00;99.90;;;;;;5044780;28;20605;-62
2023/09/07 02:16:12;;;;;;;3.20;1.63;;;12.90;99.90;;;;;;5036628;28;20268;-62
2023/09/07 02:18:39;;;;;;;3.70;2.10;;;12.80;99.90;;;;;;5051513;28;20516;-62
2023/09/07 02:21:05;;;;;;;5.67;2.07;;;12.90;99.90;;;;;;5037686;28;20257;-62
2023/09/07 02:23:35;;;;;;;3.97;2.30;;;12.80;99.90;;;;;;5050661;28;20499;-62
2023/09/07 02:26:00;;;;;;;3.60;1.80;;;12.80;99.90;;;;;;5043465;28;20507;-62
2023/09/07 02:28:26;;;;;;;4.70;2.20;;;12.80;99.90;;;;;;5033477;28;20846;-62
2023/09/07 02:30:52;;;;;;;3.07;1.93;;;12.80;99.90;;;;;;5034285;28;20312;-62
2023/09/07 02:33:18;;;;;;;3.17;2.07;;;12.70;99.90;;;;;;5050147;28;20534;-62
2023/09/07 02:35:43;;;;;;;3.10;1.70;;;12.70;99.90;;;;;;5036054;28;20184;-62
2023/09/07 02:38:09;;;;;;;3.20;1.77;;;12.70;99.90;;;;;;5038143;28;20206;-62
2023/09/07 02:40:44;;;;;;;3.57;1.80;;;12.60;99.90;;;;;;5043178;28;20249;-62
2023/09/07 02:43:10;;;;;;;5.73;2.90;;;12.60;99.90;;;;;;5051482;28;20565;-62
2023/09/07 02:45:36;;;;;;;4.37;2.67;;;12.70;99.90;;;;;;5052993;28;20951;-62
2023/09/07 02:48:02;;;;;;;3.73;1.80;;;12.70;99.90;;;;;;5053675;28;20790;-62
2023/09/07 02:50:33;;;;;;;6.60;2.77;;;12.60;99.90;;;;;;5053000;28;20450;-62
2023/09/07 02:53:00;;;;;;;3.97;1.80;;;12.60;99.90;;;;;;5069168;28;20225;-62
2023/09/07 02:55:26;;;;;;;3.30;1.70;;;12.60;99.90;;;;;;5053179;28;20419;-62
2023/09/07 02:57:52;;;;;;;4.20;2.40;;;12.60;99.90;;;;;;5053464;28;20982;-62
2023/09/07 03:00:18;;;;;;;4.00;2.20;;;12.50;99.90;;;;;;5046778;28;20529;-62
2023/09/07 03:02:44;;;;;;;4.80;2.00;;;12.50;99.90;;;;;;5030163;28;20228;-62
2023/09/07 03:05:10;;;;;;;4.57;2.37;;;12.40;99.90;;;;;;5031585;28;20175;-62
2023/09/07 03:07:39;;;;;;;4.00;1.77;;;12.50;99.90;;;;;;5042856;28;20420;-62
2023/09/07 03:10:05;;;;;;;4.57;1.60;;;12.50;99.90;;;;;;5044546;28;20181;-62
2023/09/07 03:12:30;;;;;;;4.33;2.10;;;12.50;99.90;;;;;;5052666;28;21014;-62
2023/09/07 03:14:56;;;;;;;10.10;1.97;;;12.50;99.90;;;;;;5051963;28;20523;-62
2023/09/07 03:17:22;;;;;;;5.70;2.43;;;12.40;99.90;;;;;;5052475;28;20185;-62
2023/09/07 03:19:47;;;;;;;6.07;2.40;;;12.40;99.90;;;;;;5040254;28;20170;-62
2023/09/07 03:22:13;;;;;;;4.80;1.70;;;12.30;99.90;;;;;;5042219;28;20173;-62
2023/09/07 03:24:40;;;;;;;3.00;1.67;;;12.30;99.90;;;;;;5052538;28;20189;-62
2023/09/07 03:27:06;;;;;;;19.83;3.20;;;12.30;99.90;;;;;;5034817;28;20651;-62
2023/09/07 03:29:33;;;;;;;10.37;2.57;;;12.30;99.90;;;;;;5035342;28;20492;-62
2023/09/07 03:32:00;;;;;;;7.73;2.90;;;12.30;99.90;;;;;;5051369;28;20416;-62
2023/09/07 03:34:25;;;;;;;4.10;2.40;;;12.30;99.90;;;;;;5044783;28;20608;-62
2023/09/07 03:36:51;;;;;;;4.93;3.40;;;12.30;99.90;;;;;;5045824;28;20433;-62
2023/09/07 03:39:18;;;;;;;5.73;2.47;;;12.30;99.90;;;;;;5045571;28;20188;-62
2023/09/07 03:41:44;;;;;;;4.27;2.40;;;12.20;99.90;;;;;;5047605;28;20647;-63
2023/09/07 03:44:10;;;;;;;5.77;2.90;;;12.20;99.90;;;;;;5052262;28;20788;-62
2023/09/07 03:46:36;;;;;;;4.60;2.67;;;12.20;99.90;;;;;;5045687;28;20429;-60
2023/09/07 03:49:02;;;;;;;7.10;2.90;;;12.20;99.90;;;;;;5044922;28;20539;-60
2023/09/07 03:51:28;;;;;;;5.60;2.30;;;12.10;99.90;;;;;;5052280;28;20192;-60
2023/09/07 03:53:54;;;;;;;4.10;2.50;;;12.10;99.90;;;;;;5051859;28;20456;-63
2023/09/07 03:56:19;;;;;;;12.90;2.80;;;12.00;99.90;;;;;;5045687;28;20179;-63
2023/09/07 03:58:47;;;;;;;12.13;3.67;;;12.10;99.90;;;;;;5032167;28;20182;-60
2023/09/07 04:01:13;;;;;;;8.50;3.77;;;12.10;99.90;;;;;;5051351;28;20191;-60
2023/09/07 04:03:40;;;;;;;10.17;4.30;;;12.10;99.90;;;;;;5038946;28;20456;-60
2023/09/07 04:06:06;;;;;;;9.67;4.50;;;12.00;99.90;;;;;;5037740;28;20527;-60
2023/09/07 04:08:32;;;;;;;8.23;4.80;;;12.00;99.90;;;;;;5039156;28;20443;-60
2023/09/07 04:10:57;;;;;;;9.93;4.70;;;12.00;99.90;;;;;;5051374;28;20264;-60
2023/09/07 04:13:23;;;;;;;15.23;4.97;;;11.90;99.90;;;;;;5051453;28;20560;-60
2023/09/07 04:15:49;;;;;;;7.80;3.70;;;12.00;99.90;;;;;;5037607;28;20631;-60
2023/09/07 04:18:16;;;;;;;7.13;3.67;;;12.00;99.90;;;;;;5052155;28;20219;-60
2023/09/07 04:20:42;;;;;;;5.90;2.97;;;12.00;99.90;;;;;;5034879;28;20178;-60
2023/09/07 04:23:08;;;;;;;7.33;3.90;;;11.90;99.90;;;;;;5045170;28;20454;-60
2023/09/07 04:25:33;;;;;;;5.33;2.80;;;12.00;99.90;;;;;;5046318;28;20405;-60
2023/09/07 04:28:00;;;;;;;24.80;3.80;;;11.90;99.90;;;;;;5031383;28;20724;-60
2023/09/07 04:30:25;;;;;;;5.37;2.80;;;11.90;99.90;;;;;;5039788;28;20178;-60
2023/09/07 04:32:51;;;;;;;2.73;1.90;;;12.00;99.90;;;;;;5051107;28;20775;-63
2023/09/07 04:35:16;;;;;;;21.87;2.93;;;12.00;99.90;;;;;;5043134;28;20184;-60
2023/09/07 04:37:45;;;;;;;4.20;2.53;;;11.80;99.90;;;;;;5051506;28;20581;-60
2023/09/07 04:40:11;;;;;;;4.13;2.83;;;11.90;99.90;;;;;;5051146;28;20642;-60
2023/09/07 04:42:38;;;;;;;4.60;2.93;;;11.90;99.90;;;;;;5050891;28;20415;-60
2023/09/07 04:45:05;;;;;;;3.97;2.17;;;11.90;99.90;;;;;;5043848;28;20185;-61
2023/09/07 04:47:31;;;;;;;7.50;2.73;;;11.90;99.90;;;;;;5044570;28;20439;-61
2023/09/07 04:49:56;;;;;;;4.57;2.40;;;11.90;99.90;;;;;;5051581;28;20408;-61
2023/09/07 04:52:22;;;;;;;4.20;2.50;;;11.80;99.90;;;;;;5051004;28;20288;-61
2023/09/07 04:54:47;;;;;;;4.63;2.43;;;12.00;99.90;;;;;;5050572;28;20643;-61
2023/09/07 04:57:17;;;;;;;10.93;2.93;;;11.80;99.90;;;;;;5037783;28;20223;-61
2023/09/07 04:59:43;;;;;;;7.50;2.57;;;11.80;99.90;;;;;;5051534;28;20899;-61
2023/09/07 05:02:09;;;;;;;5.63;2.53;;;11.80;99.90;;;;;;5037176;28;20429;-61
2023/09/07 05:04:34;;;;;;;2.97;1.90;;;11.80;99.90;;;;;;5043323;28;20178;-61
2023/09/07 05:07:00;;;;;;;4.90;2.37;;;11.80;99.90;;;;;;5045064;28;20185;-61
2023/09/07 05:09:26;;;;;;;6.10;2.30;;;11.80;99.90;;;;;;5051036;28;20177;-61
2023/09/07 05:11:52;;;;;;;5.07;2.43;;;11.80;99.90;;;;;;5049770;28;20566;-61
2023/09/07 05:14:18;;;;;;;3.10;2.00;;;11.80;99.90;;;;;;5035674;28;20555;-61
2023/09/07 05:16:44;;;;;;;3.57;2.43;;;11.80;99.90;;;;;;5017522;28;20493;-61
2023/09/07 05:19:09;;;;;;;4.37;2.57;;;11.90;99.90;;;;;;5043454;28;20182;-61
2023/09/07 05:21:35;;;;;;;5.10;2.77;;;11.80;99.90;;;;;;5031514;28;20213;-61
2023/09/07 05:24:01;;;;;;;3.50;2.27;;;11.90;99.90;;;;;;5050220;28;20606;-61
2023/09/07 05:26:26;;;;;;;8.00;2.23;;;11.80;99.90;;;;;;5038611;28;20181;-61
2023/09/07 05:28:52;;;;;;;13.00;2.80;;;12.00;99.90;;;;;;5033052;28;20593;-61
2023/09/07 05:31:18;;;;;;;5.37;2.33;;;11.90;99.90;;;;;;5044295;28;20178;-61
2023/09/07 05:33:43;;;;;;;4.40;2.50;;;12.00;99.90;;;;;;5048617;28;20203;-61
2023/09/07 05:36:09;;;;;;;3.43;2.60;;;12.00;99.90;;;;;;5044709;28;20644;-61
2023/09/07 05:38:35;;;;;;;9.83;2.17;;;12.10;99.90;;;;;;5050628;28;20178;-61
2023/09/07 05:41:00;;;;;;;5.67;2.63;;;12.10;99.90;;;;;;5050210;28;20178;-63
2023/09/07 05:43:26;;;;;;;3.97;2.03;;;12.20;99.90;;;;;;5050115;28;20189;-63
2023/09/07 05:45:51;;;;;;;5.00;2.37;;;12.20;99.90;;;;;;5049475;28;20189;-63
2023/09/07 05:48:17;;;;;;;4.00;2.53;;;12.20;99.90;;;;;;5043654;28;20190;-63
2023/09/07 05:50:43;;;;;;;6.90;3.00;;;12.30;99.90;;;;;;5044360;28;20534;-63
2023/09/07 05:53:09;;;;;;;4.63;2.60;;;12.40;99.90;;;;;;5043118;28;20202;-63
2023/09/07 05:55:34;;;;;;;8.47;3.03;;;12.50;99.90;;;;;;5030462;28;20779;-63
2023/09/07 05:58:05;;;;;;;12.40;2.80;;;12.50;99.90;;;;;;5037411;28;20188;-63
2023/09/07 06:00:30;;;;;;;5.30;2.83;;;12.50;99.90;;;;;;5049266;28;20174;-63
2023/09/07 06:02:56;;;;;;;9.57;3.17;;;12.60;99.90;;;;;;5037437;28;20946;-63
2023/09/07 06:05:22;;;;;;;6.57;2.80;;;12.60;99.90;;;;;;5049638;28;20173;-63
2023/09/07 06:07:47;;;;;;;5.73;2.97;;;12.70;99.90;;;;;;5049794;28;20180;-63
2023/09/07 06:10:13;;;;;;;7.23;3.07;;;12.80;99.90;;;;;;5049898;28;20188;-63
2023/09/07 06:12:39;;;;;;;5.63;2.70;;;12.90;99.90;;;;;;5049472;28;20263;-63
2023/09/07 06:15:05;;;;;;;8.50;4.00;;;13.00;99.90;;;;;;5049413;28;20224;-63
2023/09/07 06:17:31;;;;;;;4.00;2.77;;;13.10;99.90;;;;;;5049703;28;20178;-63
2023/09/07 06:19:56;;;;;;;6.80;3.30;;;13.20;99.90;;;;;;5036865;28;20417;-63
2023/09/07 06:22:22;;;;;;;5.87;3.50;;;13.30;99.90;;;;;;5032750;28;20175;-63
2023/09/07 06:24:49;;;;;;;12.03;3.83;;;13.40;99.90;;;;;;5028667;28;20221;-63
2023/09/07 06:27:14;;;;;;;7.17;3.03;;;13.50;99.90;;;;;;5031049;28;20183;-62
2023/09/07 06:29:40;;;;;;;10.80;2.57;;;13.60;99.90;;;;;;5037484;28;20431;-62
2023/09/07 06:32:05;;;;;;;9.00;2.83;;;13.70;99.90;;;;;;5046082;28;20256;-62
2023/09/07 06:34:31;;;;;;;5.00;3.20;;;13.80;99.90;;;;;;5053189;28;20697;-62
2023/09/07 06:36:56;;;;;;;5.67;2.57;;;13.90;99.90;;;;;;5046572;28;20182;-62
2023/09/07 06:39:22;;;;;;;6.00;3.70;;;13.90;99.90;;;;;;5047464;28;20599;-62
2023/09/07 06:41:48;;;;;;;6.70;3.73;;;14.00;99.90;;;;;;5053721;28;20170;-62
2023/09/07 06:44:14;;;;;;;8.30;4.10;;;14.20;99.90;;;;;;5052754;28;20269;-62
2023/09/07 06:46:40;;;;;;;9.83;3.53;;;14.40;99.90;;;;;;5053128;28;20232;-62
2023/09/07 06:49:05;;;;;;;9.30;4.30;;;14.70;99.90;;;;;;5053474;28;20260;-62
2023/09/07 06:51:31;;;;;;;10.77;3.73;;;14.90;99.90;;;;;;5040030;28;20507;-62
2023/09/07 06:53:57;;;;;;;5.80;3.43;;;15.10;99.90;;;;;;5039827;28;20238;-62
2023/09/07 06:56:23;;;;;;;8.90;3.80;;;15.30;99.90;;;;;;5046773;28;20182;-62
2023/09/07 06:58:49;;;;;;;7.73;3.73;;;15.60;99.90;;;;;;5036073;28;20265;-62
2023/09/07 07:01:15;;;;;;;6.70;4.43;;;15.80;99.90;;;;;;5037685;28;20512;-62
2023/09/07 07:03:41;;;;;;;7.27;4.07;;;15.90;99.90;;;;;;5034922;28;20269;-62
2023/09/07 07:06:07;;;;;;;8.00;4.07;;;16.20;99.90;;;;;;5046071;28;20520;-62
2023/09/07 07:08:32;;;;;;;6.37;3.23;;;16.50;99.90;;;;;;5045795;28;20880;-62
2023/09/07 07:10:58;;;;;;;5.53;3.43;;;16.90;99.90;;;;;;5052597;28;20192;-62
2023/09/07 07:13:24;;;;;;;6.57;3.73;;;17.30;99.90;;;;;;5040191;28;20337;-62
2023/09/07 07:15:49;;;;;;;9.17;4.10;;;17.70;99.90;;;;;;5037545;28;20189;-62
2023/09/07 07:18:15;;;;;;;7.80;3.23;;;18.00;99.90;;;;;;5053145;28;20793;-62
2023/09/07 07:20:42;;;;;;;6.47;3.03;;;18.40;99.90;;;;;;5036007;28;20182;-62
2023/09/07 07:23:08;;;;;;;7.10;3.50;;;18.90;99.90;;;;;;5033168;28;20186;-62
2023/09/07 07:25:34;;;;;;;6.80;3.87;;;19.40;99.90;;;;;;5046323;28;20447;-62
2023/09/07 07:28:06;;;;;;;5.80;2.93;;;20.00;99.90;;;;;;5031301;28;20285;-62
2023/09/07 07:30:36;;;;;;;5.60;3.57;;;21.10;99.90;;;;;;5041274;28;20443;-60
2023/09/07 07:33:05;;;;;;;5.30;3.23;;;22.10;99.90;;;;;;5044227;28;20984;-60
2023/09/07 07:35:32;;;;;;;7.60;2.80;;;23.00;99.40;;;;;;5037775;28;20424;-62
2023/09/07 07:37:58;;;;;;;5.40;3.17;;;23.80;98.90;;;;;;5033610;28;20462;-63
2023/09/07 07:40:24;;;;;;;9.10;3.90;;;24.90;97.00;;;;;;5040641;28;20514;-61
2023/09/07 07:42:53;;;;;;;6.73;2.67;;;25.20;95.60;;;;;;5033790;28;20193;-62
2023/09/07 07:45:22;;;;;;;3.60;2.63;;;25.10;95.60;;;;;;5036183;28;20209;-61
2023/09/07 07:47:51;;;;;;;5.53;3.03;;;24.70;95.60;;;;;;5037646;28;20424;-61
2023/09/07 07:50:18;;;;;;;5.60;3.13;;;24.80;95.80;;;;;;5038134;28;20478;-61
2023/09/07 07:52:44;;;;;;;3.97;2.93;;;25.00;95.30;;;;;;5032093;28;20504;-61
2023/09/07 07:55:10;;;;;;;4.40;2.73;;;24.90;95.40;;;;;;5041875;28;20469;-61
2023/09/07 07:57:36;;;;;;;5.17;3.40;;;24.90;95.60;;;;;;5038772;28;20422;-61
2023/09/07 08:00:04;;;;;;;4.17;2.73;;;24.70;95.10;;;;;;5052214;28;20503;-60
2023/09/07 08:02:30;;;;;;;9.03;3.50;;;24.50;96.00;;;;;;5038352;28;20181;-61
2023/09/07 08:04:55;;;;;;;8.33;3.57;;;24.40;96.20;;;;;;5051653;28;20430;-61
2023/09/07 08:07:21;;;;;;;4.93;2.67;;;24.70;95.90;;;;;;5052235;28;20420;-61
2023/09/07 08:09:47;;;;;;;4.67;3.00;;;24.30;96.20;;;;;;5051981;28;20196;-61
2023/09/07 08:12:13;;;;;;;5.50;3.47;;;24.80;95.80;;;;;;5051667;28;20216;-61
2023/09/07 08:14:38;;;;;;;5.10;3.03;;;25.10;95.90;;;;;;5051219;28;20201;-61
2023/09/07 08:17:04;;;;;;;3.90;2.50;;;25.60;94.50;;;;;;5048723;28;20186;-60
2023/09/07 08:19:30;;;;;;;9.13;3.43;;;25.30;95.10;;;;;;5025933;28;20189;-61
2023/09/07 08:21:58;;;;;;;5.03;2.87;;;25.30;95.80;;;;;;5035399;28;20182;-61
2023/09/07 08:24:24;;;;;;;4.73;2.73;;;25.40;95.30;;;;;;5041856;28;20192;-61
2023/09/07 08:26:54;;;;;;;4.80;2.87;;;25.50;95.30;;;;;;5036291;28;20639;-61
2023/09/07 08:29:20;;;;;;;5.70;3.03;;;25.50;94.90;;;;;;5033758;28;20197;-61
2023/09/07 08:31:47;;;;;;;3.80;2.73;;;25.70;94.50;;;;;;5047450;28;20807;-61
2023/09/07 08:34:14;;;;;;;5.43;2.97;;;25.70;94.00;;;;;;5032714;28;20209;-61
2023/09/07 08:36:40;;;;;;;7.53;3.10;;;25.80;93.60;;;;;;5039198;28;20563;-61
2023/09/07 08:39:09;;;;;;;4.45;2.63;;;25.60;94.30;;;;;;5042894;28;20185;-61
2023/09/07 08:41:43;;;;;;;6.38;3.78;;;26.10;94.10;;;;;;5050670;28;20213;-61
2023/09/07 08:44:15;;;;;;;4.15;2.55;;;26.00;93.70;;;;;;5037056;28;20702;-61
2023/09/07 08:46:42;;;;;;;7.20;3.00;;;25.90;93.60;;;;;;5024220;28;20185;-61
2023/09/07 08:49:09;;;;;;;3.65;2.40;;;25.80;93.50;;;;;;5037272;28;20181;-61
2023/09/07 08:51:37;;;;;;;4.55;2.70;;;26.40;93.70;;;;;;5051217;28;20181;-61
2023/09/07 08:54:03;;;;;;;6.63;2.55;;;26.20;93.80;;;;;;5051080;28;20346;-61
2023/09/07 08:56:29;;;;;;;5.28;3.40;;;26.70;92.80;;;;;;5043137;28;20205;-61
2023/09/07 08:58:54;;;;;;;5.38;3.15;;;27.00;93.00;;;;;;5031604;28;20276;-61
2023/09/07 09:01:23;;;;;;;5.93;3.47;;;27.10;92.80;;;;;;5050754;28;20654;-61
2023/09/07 09:03:50;;;;;;;6.70;3.80;;;26.60;92.90;;;;;;5028290;28;20508;-61
2023/09/07 09:06:18;;;;;;;6.18;3.53;;;26.30;93.20;;;;;;5050879;28;20563;-61
2023/09/07 09:08:53;;;;;;;5.93;2.97;;;26.30;93.40;;;;;;5050633;28;20462;-62
2023/09/07 09:11:20;;;;;;;6.80;3.15;;;26.20;94.00;;;;;;5041089;28;20208;-61
2023/09/07 09:13:46;;;;;;;7.40;3.70;;;25.90;94.10;;;;;;5046916;28;20759;-61
2023/09/07 09:16:13;;;;;;;6.63;2.85;;;25.70;94.00;;;;;;5036887;28;20178;-61
2023/09/07 09:18:47;;;;;;;5.68;3.20;;;26.40;93.70;;;;;;5024990;28;20205;-61
2023/09/07 09:21:14;;;;;;;6.07;2.83;;;26.70;93.40;;;;;;5029092;28;20173;-61
2023/09/07 09:23:40;;;;;;;5.38;3.45;;;26.90;93.30;;;;;;5030522;28;20693;-61
2023/09/07 09:26:06;;;;;;;4.28;2.33;;;27.20;93.60;;;;;;5028475;28;20201;-61
2023/09/07 09:28:33;;;;;;;6.18;3.03;;;27.00;93.30;;;;;;5027525;28;20224;-61
2023/09/07 09:31:03;;;;;;;6.93;3.38;;;27.30;93.90;;;;;;5041191;28;20701;-62
2023/09/07 09:33:33;;;;;;;9.05;3.25;;;27.40;93.20;;;;;;5039791;28;20217;-62
2023/09/07 09:35:59;;;;;;;5.38;3.10;;;27.20;93.60;;;;;;5034868;28;20169;-61
2023/09/07 09:38:25;;;;;;;4.88;3.10;;;27.50;93.00;;;;;;5050860;28;20273;-61
2023/09/07 09:40:52;;;;;;;6.20;3.17;;;27.80;92.80;;;;;;5050263;28;20727;-61
2023/09/07 09:43:20;;;;;;;4.60;2.80;;;27.90;92.40;;;;;;5044255;28;20194;-62
2023/09/07 09:45:46;;;;;;;6.97;3.10;;;27.80;92.00;;;;;;5042666;28;20572;-61
2023/09/07 09:48:13;;;;;;;6.78;3.63;;;27.20;93.50;;;;;;5050354;28;20187;-61
2023/09/07 09:50:40;;;;;;;5.40;3.22;;;27.10;92.80;;;;;;5050434;28;20226;-61
2023/09/07 09:53:07;;;;;;;5.38;3.10;;;26.60;93.30;;;;;;5050734;28;20212;-61
2023/09/07 09:55:33;;;;;;;4.57;3.38;;;25.90;94.40;;;;;;5050192;28;20196;-61
2023/09/07 09:57:59;;;;;;;5.40;3.07;;;25.70;94.40;;;;;;5050329;28;20264;-61
2023/09/07 10:00:28;;;;;;;4.60;2.90;;;25.30;95.40;;;;;;5052407;28;20257;-61
2023/09/07 10:03:20;;;;;;;8.50;2.93;;;25.10;95.80;;;;;;5031664;28;20191;-61
2023/09/07 10:05:46;;;;;;;10.43;3.37;;;25.00;95.50;;;;;;5054059;28;20465;-61
2023/09/07 10:08:13;;;;;;;4.73;3.30;;;24.70;95.90;;;;;;5054092;28;20403;-61
2023/09/07 10:10:41;;;;;;;4.90;3.53;;;24.50;97.50;;;;;;5053989;28;20536;-61
2023/09/07 10:13:07;;;;;;;10.70;3.20;;;24.50;96.60;;;;;;5042453;28;20455;-60
2023/09/07 10:15:35;;;;;;;7.50;2.90;;;24.40;96.30;;;;;;5046964;28;20498;-61
2023/09/07 10:18:10;;;;;;;5.20;3.43;;;24.30;98.00;;;;;;5045252;28;20178;-61
2023/09/07 10:20:48;;;;;;;4.60;3.10;;;24.40;97.40;;;;;;5040805;28;20430;-61
2023/09/07 10:23:14;;;;;;;9.13;3.77;;;24.20;97.20;;;;;;5040282;28;20416;-60
2023/09/07 10:25:40;;;;;;;5.93;3.60;;;24.20;97.40;;;;;;5048171;28;20455;-61
2023/09/07 10:28:16;;;;;;;5.60;3.77;;;24.30;97.60;;;;;;5033478;28;20193;-61
2023/09/07 10:30:42;;;;;;;5.03;3.10;;;24.50;97.20;;;;;;5042308;28;20205;-61
2023/09/07 10:33:18;;;;;;;4.90;2.73;;;24.70;97.20;;;;;;5040139;28;20591;-60
2023/09/07 10:35:44;;;;;;;7.93;3.67;;;24.70;98.60;;;;;;5045824;28;20352;-61
2023/09/07 10:38:13;;;;;;;7.10;3.10;;;24.70;97.70;;;;;;5036271;28;20499;-61
2023/09/07 10:40:39;;;;;;;6.70;2.80;;;24.70;97.40;;;;;;5024327;28;20174;-61
2023/09/07 10:43:05;;;;;;;5.50;3.43;;;24.70;97.30;;;;;;5035842;28;20428;-61
2023/09/07 10:45:31;;;;;;;7.43;3.13;;;24.90;97.60;;;;;;5039746;28;20412;-61
2023/09/07 10:47:56;;;;;;;5.20;2.90;;;25.10;96.70;;;;;;5032943;28;20719;-61
2023/09/07 10:50:22;;;;;;;4.00;2.80;;;25.00;97.50;;;;;;5030118;28;20185;-60
2023/09/07 10:52:48;;;;;;;5.83;3.40;;;25.10;96.60;;;;;;5038242;28;20264;-61
2023/09/07 10:55:14;;;;;;;5.70;3.30;;;25.10;96.80;;;;;;5035947;28;20197;-61
2023/09/07 10:57:44;;;;;;;6.30;3.57;;;25.20;96.70;;;;;;5050538;28;20415;-61
2023/09/07 11:00:11;;;;;;;5.60;2.83;;;25.30;97.00;;;;;;5053300;28;20260;-61
2023/09/07 11:02:40;;;;;;;21.07;3.60;;;25.30;97.70;;;;;;5049050;28;20500;-61
2023/09/07 11:05:06;;;;;;;7.50;3.10;;;25.50;96.90;;;;;;5052675;28;20448;-66
2023/09/07 11:07:33;;;;;;;5.37;3.20;;;25.30;97.40;;;;;;5051604;28;20430;-66
2023/09/07 11:09:58;;;;;;;6.20;3.33;;;25.30;96.80;;;;;;5040808;28;20439;-66
2023/09/07 11:12:24;;;;;;;4.37;3.20;;;25.50;97.00;;;;;;5050476;28;20423;-66
2023/09/07 11:14:52;;;;;;;5.33;2.97;;;25.60;97.60;;;;;;5052460;28;20200;-66
2023/09/07 11:17:17;;;;;;;10.80;2.97;;;25.80;96.40;;;;;;5052281;28;20227;-66
2023/09/07 11:19:43;;;;;;;4.30;2.70;;;25.60;96.90;;;;;;5041022;28;20466;-68
2023/09/07 11:22:13;;;;;;;7.20;2.50;;;25.60;97.60;;;;;;5037628;28;20186;-65
2023/09/07 11:24:39;;;;;;;4.10;2.47;;;25.80;96.70;;;;;;5040441;28;20258;-66
2023/09/07 11:27:05;;;;;;;8.57;3.77;;;25.70;95.90;;;;;;5031655;28;20436;-66
2023/09/07 11:29:32;;;;;;;5.60;3.00;;;25.90;96.00;;;;;;5034158;28;20425;-66
2023/09/07 11:32:08;;;;;;;6.07;3.73;;;26.00;97.10;;;;;;5038638;28;20994;-66
2023/09/07 11:34:34;;;;;;;7.00;2.70;;;26.10;95.70;;;;;;5029270;28;21047;-65
2023/09/07 11:37:03;;;;;;;7.73;3.57;;;26.20;96.00;;;;;;5033863;28;21107;-66
2023/09/07 11:39:29;;;;;;;5.40;3.30;;;26.50;96.50;;;;;;5031696;28;20189;-66
2023/09/07 11:41:54;;;;;;;10.80;3.47;;;26.60;95.60;;;;;;5030124;28;20424;-66
2023/09/07 11:44:20;;;;;;;4.57;3.07;;;26.60;95.70;;;;;;5030836;28;20245;-66
2023/09/07 11:46:46;;;;;;;6.07;3.50;;;26.60;95.10;;;;;;5035688;28;20201;-66
2023/09/07 11:49:11;;;;;;;6.47;3.23;;;26.60;96.10;;;;;;5039348;28;20209;-66
2023/09/07 11:51:37;;;;;;;8.40;3.27;;;26.80;95.30;;;;;;5052306;28;20192;-60
2023/09/07 11:54:04;;;;;;;7.70;3.03;;;26.90;96.10;;;;;;5051750;28;20697;-60
2023/09/07 11:56:30;;;;;;;5.47;3.93;;;26.80;95.00;;;;;;5052183;28;20729;-60
2023/09/07 11:58:55;;;;;;;10.20;3.70;;;27.00;95.10;;;;;;5038246;28;20260;-60
2023/09/07 12:01:21;;;;;;;4.50;2.87;;;27.10;94.60;;;;;;5051910;28;20174;-61
2023/09/07 12:03:47;;;;;;;8.00;3.60;;;27.10;94.40;;;;;;5051745;28;20423;-60
2023/09/07 12:06:14;;;;;;;11.20;4.50;;;27.20;94.70;;;;;;5051702;28;20271;-60
2023/09/07 12:08:57;;;;;;;10.80;3.83;;;27.30;94.30;;;;;;5052394;28;20200;-61
2023/09/07 12:11:22;;;;;;;6.57;3.33;;;27.30;94.40;;;;;;5021084;28;20253;-61
2023/09/07 12:13:48;;;;;;;7.10;3.43;;;27.10;94.30;;;;;;5020591;28;20679;-60
2023/09/07 12:16:14;;;;;;;5.93;3.10;;;27.00;95.10;;;;;;5050849;28;20205;-60
2023/09/07 12:18:40;;;;;;;6.83;3.67;;;27.30;94.10;;;;;;5048806;28;20282;-60
2023/09/07 12:21:05;;;;;;;5.83;3.77;;;27.40;93.60;;;;;;5035351;28;20678;-60
2023/09/07 12:23:31;;;;;;;4.83;4.00;;;27.50;94.20;;;;;;5044838;28;20186;-61
2023/09/07 12:25:56;;;;;;;7.73;3.40;;;27.50;93.90;;;;;;5033401;28;20210;-61
2023/09/07 12:28:22;;;;;;;5.90;3.40;;;27.60;94.50;;;;;;5034069;28;20193;-61
2023/09/07 12:30:48;;;;;;;5.77;3.30;;;27.80;94.90;;;;;;5040240;28;20276;-60
2023/09/07 12:33:14;;;;;;;6.13;3.08;;;27.70;94.40;;;;;;5037930;28;20239;-60
2023/09/07 12:35:40;;;;;;;9.32;3.42;;;27.90;93.50;;;;;;5043209;28;20248;-61
2023/09/07 12:38:08;;;;;;;5.30;3.75;;;28.00;93.70;;;;;;5037999;28;20196;-60
2023/09/07 12:40:34;;;;;;;3.90;2.67;;;27.90;93.40;;;;;;5036385;28;20225;-60
2023/09/07 12:43:00;;;;;;;5.95;3.10;;;28.10;93.10;;;;;;5037137;28;20254;-60